sensor_id;sensor_type;location;lat;lon;timestamp;P1;durP1;ratioP1;P2;durP2;ratioP2
22531;SDS011;11432;46.924;7.114;2023-02-23T00:00:34;19.52;;;11.82;;
22531;SDS011;11432;46.924;7.114;2023-02-23T00:03:00;20.67;;;13.13;;
22531;SDS011;11432;46.924;7.114;2023-02-23T00:05:27;18.83;;;12.20;;
22531;SDS011;11432;46.924;7.114;2023-02-23T00:07:54;20.75;;;12.48;;
22531;SDS011;11432;46.924;7.114;2023-02-23T00:10:20;19.95;;;12.60;;
22531;SDS011;11432;46.924;7.114;2023-02-23T00:15:15;20.45;;;12.40;;
22531;SDS011;11432;46.924;7.114;2023-02-23T00:17:41;20.13;;;12.93;;
22531;SDS011;11432;46.924;7.114;2023-02-23T00:20:09;19.83;;;11.57;;
22531;SDS011;11432;46.924;7.114;2023-02-23T00:22:39;16.80;;;11.65;;
22531;SDS011;11432;46.924;7.114;2023-02-23T00:25:06;19.95;;;11.88;;
22531;SDS011;11432;46.924;7.114;2023-02-23T00:27:34;18.45;;;11.85;;
22531;SDS011;11432;46.924;7.114;2023-02-23T00:30:02;17.25;;;12.00;;
22531;SDS011;11432;46.924;7.114;2023-02-23T00:32:28;18.75;;;12.05;;
22531;SDS011;11432;46.924;7.114;2023-02-23T00:34:53;17.77;;;12.40;;
22531;SDS011;11432;46.924;7.114;2023-02-23T00:37:19;19.65;;;12.55;;
22531;SDS011;11432;46.924;7.114;2023-02-23T00:39:46;18.00;;;11.75;;
22531;SDS011;11432;46.924;7.114;2023-02-23T00:42:12;20.00;;;12.15;;
22531;SDS011;11432;46.924;7.114;2023-02-23T00:44:38;18.60;;;11.48;;
22531;SDS011;11432;46.924;7.114;2023-02-23T00:47:04;17.40;;;11.23;;
22531;SDS011;11432;46.924;7.114;2023-02-23T00:49:30;21.10;;;12.07;;
22531;SDS011;11432;46.924;7.114;2023-02-23T00:51:56;18.20;;;11.77;;
22531;SDS011;11432;46.924;7.114;2023-02-23T00:54:22;21.17;;;11.90;;
22531;SDS011;11432;46.924;7.114;2023-02-23T00:56:48;17.85;;;11.52;;
22531;SDS011;11432;46.924;7.114;2023-02-23T00:59:14;21.80;;;12.05;;
22531;SDS011;11432;46.924;7.114;2023-02-23T01:01:40;16.75;;;11.63;;
22531;SDS011;11432;46.924;7.114;2023-02-23T01:04:06;17.60;;;11.88;;
22531;SDS011;11432;46.924;7.114;2023-02-23T01:06:32;21.25;;;12.20;;
22531;SDS011;11432;46.924;7.114;2023-02-23T01:09:04;17.50;;;11.88;;
22531;SDS011;11432;46.924;7.114;2023-02-23T01:11:33;18.38;;;11.48;;
22531;SDS011;11432;46.924;7.114;2023-02-23T01:13:59;18.85;;;11.63;;
22531;SDS011;11432;46.924;7.114;2023-02-23T01:16:26;17.20;;;11.50;;
22531;SDS011;11432;46.924;7.114;2023-02-23T01:18:55;20.20;;;11.40;;
22531;SDS011;11432;46.924;7.114;2023-02-23T01:21:26;15.35;;;10.73;;
22531;SDS011;11432;46.924;7.114;2023-02-23T01:23:53;16.10;;;10.80;;
22531;SDS011;11432;46.924;7.114;2023-02-23T01:26:21;16.23;;;10.85;;
22531;SDS011;11432;46.924;7.114;2023-02-23T01:28:49;16.15;;;10.13;;
22531;SDS011;11432;46.924;7.114;2023-02-23T01:31:16;18.48;;;11.18;;
22531;SDS011;11432;46.924;7.114;2023-02-23T01:33:42;19.83;;;11.32;;
22531;SDS011;11432;46.924;7.114;2023-02-23T01:36:08;19.02;;;11.38;;
22531;SDS011;11432;46.924;7.114;2023-02-23T01:38:34;19.38;;;11.48;;
22531;SDS011;11432;46.924;7.114;2023-02-23T01:40:59;15.27;;;10.27;;
22531;SDS011;11432;46.924;7.114;2023-02-23T01:43:25;16.75;;;10.77;;
22531;SDS011;11432;46.924;7.114;2023-02-23T01:45:54;16.90;;;10.93;;
22531;SDS011;11432;46.924;7.114;2023-02-23T01:48:23;16.65;;;11.15;;
22531;SDS011;11432;46.924;7.114;2023-02-23T01:50:53;15.98;;;10.75;;
22531;SDS011;11432;46.924;7.114;2023-02-23T01:53:25;16.80;;;11.82;;
22531;SDS011;11432;46.924;7.114;2023-02-23T01:55:55;15.57;;;10.23;;
22531;SDS011;11432;46.924;7.114;2023-02-23T01:58:23;15.75;;;10.60;;
22531;SDS011;11432;46.924;7.114;2023-02-23T02:00:52;16.83;;;11.02;;
22531;SDS011;11432;46.924;7.114;2023-02-23T02:03:25;16.30;;;10.88;;
22531;SDS011;11432;46.924;7.114;2023-02-23T02:05:52;14.95;;;11.00;;
22531;SDS011;11432;46.924;7.114;2023-02-23T02:08:18;15.25;;;9.93;;
22531;SDS011;11432;46.924;7.114;2023-02-23T02:13:19;16.90;;;11.05;;
22531;SDS011;11432;46.924;7.114;2023-02-23T02:16:08;17.08;;;11.52;;
22531;SDS011;11432;46.924;7.114;2023-02-23T02:19:01;15.13;;;10.80;;
22531;SDS011;11432;46.924;7.114;2023-02-23T02:38:44;12.52;;;9.70;;
22531;SDS011;11432;46.924;7.114;2023-02-23T02:44:26;14.57;;;10.30;;
22531;SDS011;11432;46.924;7.114;2023-02-23T02:47:18;12.47;;;8.70;;
22531;SDS011;11432;46.924;7.114;2023-02-23T02:49:55;11.95;;;8.98;;
22531;SDS011;11432;46.924;7.114;2023-02-23T02:52:32;14.15;;;9.60;;
22531;SDS011;11432;46.924;7.114;2023-02-23T02:55:12;16.08;;;10.48;;
22531;SDS011;11432;46.924;7.114;2023-02-23T02:57:41;13.40;;;10.05;;
22531;SDS011;11432;46.924;7.114;2023-02-23T03:02:59;13.73;;;10.07;;
22531;SDS011;11432;46.924;7.114;2023-02-23T03:05:45;15.32;;;10.30;;
22531;SDS011;11432;46.924;7.114;2023-02-23T03:12:03;12.90;;;10.35;;
22531;SDS011;11432;46.924;7.114;2023-02-23T03:15:16;12.95;;;10.00;;
22531;SDS011;11432;46.924;7.114;2023-02-23T03:21:46;16.67;;;10.18;;
22531;SDS011;11432;46.924;7.114;2023-02-23T03:24:44;15.15;;;10.25;;
22531;SDS011;11432;46.924;7.114;2023-02-23T03:30:29;15.88;;;10.05;;
22531;SDS011;11432;46.924;7.114;2023-02-23T03:33:24;15.75;;;10.80;;
22531;SDS011;11432;46.924;7.114;2023-02-23T03:36:20;15.85;;;10.43;;
22531;SDS011;11432;46.924;7.114;2023-02-23T03:42:07;15.93;;;10.82;;
22531;SDS011;11432;46.924;7.114;2023-02-23T03:44:58;14.45;;;9.65;;
22531;SDS011;11432;46.924;7.114;2023-02-23T03:47:48;15.10;;;10.35;;
22531;SDS011;11432;46.924;7.114;2023-02-23T03:50:37;16.10;;;10.50;;
22531;SDS011;11432;46.924;7.114;2023-02-23T03:53:27;17.30;;;10.98;;
22531;SDS011;11432;46.924;7.114;2023-02-23T03:56:18;17.60;;;11.00;;
22531;SDS011;11432;46.924;7.114;2023-02-23T03:59:06;17.35;;;11.10;;
22531;SDS011;11432;46.924;7.114;2023-02-23T04:01:51;17.90;;;10.77;;
22531;SDS011;11432;46.924;7.114;2023-02-23T04:04:38;17.73;;;11.43;;
22531;SDS011;11432;46.924;7.114;2023-02-23T04:07:23;17.23;;;11.18;;
22531;SDS011;11432;46.924;7.114;2023-02-23T04:10:08;16.05;;;10.60;;
22531;SDS011;11432;46.924;7.114;2023-02-23T04:12:55;16.17;;;10.10;;
22531;SDS011;11432;46.924;7.114;2023-02-23T04:18:25;12.23;;;9.80;;
22531;SDS011;11432;46.924;7.114;2023-02-23T04:20:53;12.73;;;8.77;;
22531;SDS011;11432;46.924;7.114;2023-02-23T04:23:20;12.60;;;8.82;;
22531;SDS011;11432;46.924;7.114;2023-02-23T04:25:47;11.02;;;9.00;;
22531;SDS011;11432;46.924;7.114;2023-02-23T04:28:13;13.40;;;8.98;;
22531;SDS011;11432;46.924;7.114;2023-02-23T04:30:39;10.77;;;8.65;;
22531;SDS011;11432;46.924;7.114;2023-02-23T04:33:05;11.45;;;8.70;;
22531;SDS011;11432;46.924;7.114;2023-02-23T04:35:31;12.70;;;8.88;;
22531;SDS011;11432;46.924;7.114;2023-02-23T04:37:57;11.45;;;8.35;;
22531;SDS011;11432;46.924;7.114;2023-02-23T04:40:23;12.25;;;8.40;;
22531;SDS011;11432;46.924;7.114;2023-02-23T04:42:50;10.40;;;7.70;;
22531;SDS011;11432;46.924;7.114;2023-02-23T04:45:16;9.88;;;7.70;;
22531;SDS011;11432;46.924;7.114;2023-02-23T04:47:41;10.20;;;7.80;;
22531;SDS011;11432;46.924;7.114;2023-02-23T04:50:07;11.07;;;8.35;;
22531;SDS011;11432;46.924;7.114;2023-02-23T04:52:34;9.88;;;7.88;;
22531;SDS011;11432;46.924;7.114;2023-02-23T04:55:01;11.10;;;8.18;;
22531;SDS011;11432;46.924;7.114;2023-02-23T04:57:28;12.40;;;8.55;;
22531;SDS011;11432;46.924;7.114;2023-02-23T04:59:53;11.75;;;8.70;;
22531;SDS011;11432;46.924;7.114;2023-02-23T05:02:19;12.15;;;8.50;;
22531;SDS011;11432;46.924;7.114;2023-02-23T05:04:44;11.80;;;8.30;;
22531;SDS011;11432;46.924;7.114;2023-02-23T05:07:10;12.43;;;9.55;;
22531;SDS011;11432;46.924;7.114;2023-02-23T05:09:36;13.98;;;9.95;;
22531;SDS011;11432;46.924;7.114;2023-02-23T05:12:01;14.48;;;9.75;;
22531;SDS011;11432;46.924;7.114;2023-02-23T05:14:28;13.65;;;9.77;;
22531;SDS011;11432;46.924;7.114;2023-02-23T05:16:53;14.07;;;10.52;;
22531;SDS011;11432;46.924;7.114;2023-02-23T05:19:19;12.75;;;9.45;;
22531;SDS011;11432;46.924;7.114;2023-02-23T05:21:45;13.70;;;9.80;;
22531;SDS011;11432;46.924;7.114;2023-02-23T05:24:11;14.82;;;10.07;;
22531;SDS011;11432;46.924;7.114;2023-02-23T05:26:36;17.10;;;11.07;;
22531;SDS011;11432;46.924;7.114;2023-02-23T05:29:02;14.20;;;10.20;;
22531;SDS011;11432;46.924;7.114;2023-02-23T05:31:28;12.65;;;9.32;;
22531;SDS011;11432;46.924;7.114;2023-02-23T05:33:53;14.27;;;9.38;;
22531;SDS011;11432;46.924;7.114;2023-02-23T05:36:19;13.18;;;8.95;;
22531;SDS011;11432;46.924;7.114;2023-02-23T05:38:46;12.55;;;8.93;;
22531;SDS011;11432;46.924;7.114;2023-02-23T05:41:14;17.02;;;10.07;;
22531;SDS011;11432;46.924;7.114;2023-02-23T05:43:41;11.77;;;8.82;;
22531;SDS011;11432;46.924;7.114;2023-02-23T05:46:08;14.57;;;9.07;;
22531;SDS011;11432;46.924;7.114;2023-02-23T05:48:35;13.95;;;10.15;;
22531;SDS011;11432;46.924;7.114;2023-02-23T05:51:02;15.27;;;10.18;;
22531;SDS011;11432;46.924;7.114;2023-02-23T05:53:33;15.48;;;10.43;;
22531;SDS011;11432;46.924;7.114;2023-02-23T05:55:59;13.93;;;10.10;;
22531;SDS011;11432;46.924;7.114;2023-02-23T05:58:26;12.73;;;9.50;;
22531;SDS011;11432;46.924;7.114;2023-02-23T06:00:52;12.65;;;9.00;;
22531;SDS011;11432;46.924;7.114;2023-02-23T06:03:18;11.88;;;8.98;;
22531;SDS011;11432;46.924;7.114;2023-02-23T06:05:53;12.35;;;9.23;;
22531;SDS011;11432;46.924;7.114;2023-02-23T06:08:21;13.57;;;9.32;;
22531;SDS011;11432;46.924;7.114;2023-02-23T06:10:47;13.75;;;9.52;;
22531;SDS011;11432;46.924;7.114;2023-02-23T06:13:13;12.88;;;9.27;;
22531;SDS011;11432;46.924;7.114;2023-02-23T06:15:39;14.32;;;9.73;;
22531;SDS011;11432;46.924;7.114;2023-02-23T06:18:05;12.88;;;9.18;;
22531;SDS011;11432;46.924;7.114;2023-02-23T06:20:33;13.02;;;9.35;;
22531;SDS011;11432;46.924;7.114;2023-02-23T06:22:59;14.20;;;9.32;;
22531;SDS011;11432;46.924;7.114;2023-02-23T06:25:25;12.73;;;9.55;;
22531;SDS011;11432;46.924;7.114;2023-02-23T06:27:51;14.73;;;9.43;;
22531;SDS011;11432;46.924;7.114;2023-02-23T06:30:17;14.43;;;10.30;;
22531;SDS011;11432;46.924;7.114;2023-02-23T06:32:43;14.13;;;9.85;;
22531;SDS011;11432;46.924;7.114;2023-02-23T06:35:08;17.23;;;9.80;;
22531;SDS011;11432;46.924;7.114;2023-02-23T06:37:34;14.30;;;9.15;;
22531;SDS011;11432;46.924;7.114;2023-02-23T06:40:01;15.90;;;10.23;;
22531;SDS011;11432;46.924;7.114;2023-02-23T06:42:27;13.02;;;9.77;;
22531;SDS011;11432;46.924;7.114;2023-02-23T06:44:53;14.93;;;9.90;;
22531;SDS011;11432;46.924;7.114;2023-02-23T06:47:18;14.88;;;9.98;;
22531;SDS011;11432;46.924;7.114;2023-02-23T06:49:44;12.55;;;9.38;;
22531;SDS011;11432;46.924;7.114;2023-02-23T06:52:10;16.80;;;10.30;;
22531;SDS011;11432;46.924;7.114;2023-02-23T06:54:37;16.38;;;9.70;;
22531;SDS011;11432;46.924;7.114;2023-02-23T06:57:04;13.55;;;9.65;;
22531;SDS011;11432;46.924;7.114;2023-02-23T06:59:31;15.80;;;9.68;;
22531;SDS011;11432;46.924;7.114;2023-02-23T07:01:56;13.55;;;9.63;;
22531;SDS011;11432;46.924;7.114;2023-02-23T07:04:23;14.45;;;10.20;;
22531;SDS011;11432;46.924;7.114;2023-02-23T07:06:49;14.63;;;9.18;;
22531;SDS011;11432;46.924;7.114;2023-02-23T07:09:15;16.20;;;9.77;;
22531;SDS011;11432;46.924;7.114;2023-02-23T07:11:41;13.55;;;9.50;;
22531;SDS011;11432;46.924;7.114;2023-02-23T07:14:09;12.57;;;9.23;;
22531;SDS011;11432;46.924;7.114;2023-02-23T07:16:35;13.45;;;9.88;;
22531;SDS011;11432;46.924;7.114;2023-02-23T07:19:03;13.65;;;9.50;;
22531;SDS011;11432;46.924;7.114;2023-02-23T07:21:29;13.82;;;8.90;;
22531;SDS011;11432;46.924;7.114;2023-02-23T07:23:56;14.25;;;9.80;;
22531;SDS011;11432;46.924;7.114;2023-02-23T07:26:21;13.75;;;9.65;;
22531;SDS011;11432;46.924;7.114;2023-02-23T07:28:48;17.35;;;11.00;;
22531;SDS011;11432;46.924;7.114;2023-02-23T07:31:13;13.57;;;10.05;;
22531;SDS011;11432;46.924;7.114;2023-02-23T07:33:39;14.95;;;9.95;;
22531;SDS011;11432;46.924;7.114;2023-02-23T07:36:04;14.52;;;9.52;;
22531;SDS011;11432;46.924;7.114;2023-02-23T07:38:30;12.52;;;9.02;;
22531;SDS011;11432;46.924;7.114;2023-02-23T07:40:56;12.55;;;9.40;;
22531;SDS011;11432;46.924;7.114;2023-02-23T07:43:21;11.75;;;9.32;;
22531;SDS011;11432;46.924;7.114;2023-02-23T07:45:48;12.90;;;9.63;;
22531;SDS011;11432;46.924;7.114;2023-02-23T07:48:15;12.02;;;9.27;;
22531;SDS011;11432;46.924;7.114;2023-02-23T07:50:42;12.65;;;9.20;;
22531;SDS011;11432;46.924;7.114;2023-02-23T07:53:08;12.38;;;8.98;;
22531;SDS011;11432;46.924;7.114;2023-02-23T07:55:34;13.45;;;9.93;;
22531;SDS011;11432;46.924;7.114;2023-02-23T07:58:02;13.55;;;10.07;;
22531;SDS011;11432;46.924;7.114;2023-02-23T08:00:28;12.50;;;9.13;;
22531;SDS011;11432;46.924;7.114;2023-02-23T08:02:54;13.70;;;9.88;;
22531;SDS011;11432;46.924;7.114;2023-02-23T08:05:20;14.48;;;9.48;;
22531;SDS011;11432;46.924;7.114;2023-02-23T08:07:45;15.98;;;10.20;;
22531;SDS011;11432;46.924;7.114;2023-02-23T08:10:11;16.70;;;10.05;;
22531;SDS011;11432;46.924;7.114;2023-02-23T08:12:37;16.08;;;10.65;;
22531;SDS011;11432;46.924;7.114;2023-02-23T08:15:03;15.50;;;10.45;;
22531;SDS011;11432;46.924;7.114;2023-02-23T08:19:58;13.00;;;9.60;;
22531;SDS011;11432;46.924;7.114;2023-02-23T08:22:24;11.10;;;9.05;;
22531;SDS011;11432;46.924;7.114;2023-02-23T08:24:50;11.75;;;9.30;;
22531;SDS011;11432;46.924;7.114;2023-02-23T08:27:15;11.02;;;9.35;;
22531;SDS011;11432;46.924;7.114;2023-02-23T08:29:41;11.65;;;9.52;;
22531;SDS011;11432;46.924;7.114;2023-02-23T08:32:06;13.48;;;10.13;;
22531;SDS011;11432;46.924;7.114;2023-02-23T08:34:36;13.80;;;11.05;;
22531;SDS011;11432;46.924;7.114;2023-02-23T08:37:05;11.13;;;9.30;;
22531;SDS011;11432;46.924;7.114;2023-02-23T08:39:31;10.73;;;8.70;;
22531;SDS011;11432;46.924;7.114;2023-02-23T08:41:56;11.30;;;8.68;;
22531;SDS011;11432;46.924;7.114;2023-02-23T08:44:22;9.25;;;7.57;;
22531;SDS011;11432;46.924;7.114;2023-02-23T08:46:48;13.23;;;7.57;;
22531;SDS011;11432;46.924;7.114;2023-02-23T08:49:13;9.98;;;7.72;;
22531;SDS011;11432;46.924;7.114;2023-02-23T08:51:39;11.23;;;8.98;;
22531;SDS011;11432;46.924;7.114;2023-02-23T08:54:05;11.68;;;9.30;;
22531;SDS011;11432;46.924;7.114;2023-02-23T08:56:36;10.48;;;8.35;;
22531;SDS011;11432;46.924;7.114;2023-02-23T08:59:02;13.82;;;9.82;;
22531;SDS011;11432;46.924;7.114;2023-02-23T09:01:28;15.13;;;10.23;;
22531;SDS011;11432;46.924;7.114;2023-02-23T09:03:53;12.32;;;9.40;;
22531;SDS011;11432;46.924;7.114;2023-02-23T09:06:20;18.27;;;10.85;;
22531;SDS011;11432;46.924;7.114;2023-02-23T09:08:49;14.70;;;9.98;;
22531;SDS011;11432;46.924;7.114;2023-02-23T09:11:14;16.95;;;11.40;;
22531;SDS011;11432;46.924;7.114;2023-02-23T09:13:40;16.48;;;11.27;;
22531;SDS011;11432;46.924;7.114;2023-02-23T09:16:06;16.33;;;10.95;;
22531;SDS011;11432;46.924;7.114;2023-02-23T09:18:32;14.73;;;9.48;;
22531;SDS011;11432;46.924;7.114;2023-02-23T09:20:58;15.65;;;9.05;;
22531;SDS011;11432;46.924;7.114;2023-02-23T09:23:30;16.77;;;10.18;;
22531;SDS011;11432;46.924;7.114;2023-02-23T09:26:00;12.82;;;8.88;;
22531;SDS011;11432;46.924;7.114;2023-02-23T09:28:30;12.95;;;8.98;;
22531;SDS011;11432;46.924;7.114;2023-02-23T09:30:58;13.18;;;8.45;;
22531;SDS011;11432;46.924;7.114;2023-02-23T09:33:34;14.70;;;10.07;;
22531;SDS011;11432;46.924;7.114;2023-02-23T09:36:02;17.08;;;10.60;;
22531;SDS011;11432;46.924;7.114;2023-02-23T09:38:33;18.98;;;9.32;;
22531;SDS011;11432;46.924;7.114;2023-02-23T09:40:58;12.07;;;9.43;;
22531;SDS011;11432;46.924;7.114;2023-02-23T09:43:41;15.00;;;9.65;;
22531;SDS011;11432;46.924;7.114;2023-02-23T09:46:29;15.45;;;10.80;;
22531;SDS011;11432;46.924;7.114;2023-02-23T09:49:19;16.58;;;9.82;;
22531;SDS011;11432;46.924;7.114;2023-02-23T09:51:50;16.85;;;10.48;;
22531;SDS011;11432;46.924;7.114;2023-02-23T09:54:21;12.77;;;9.77;;
22531;SDS011;11432;46.924;7.114;2023-02-23T09:58:29;19.08;;;10.73;;
22531;SDS011;11432;46.924;7.114;2023-02-23T10:01:28;17.25;;;11.00;;
22531;SDS011;11432;46.924;7.114;2023-02-23T10:04:21;18.10;;;11.05;;
22531;SDS011;11432;46.924;7.114;2023-02-23T10:06:57;19.55;;;12.50;;
22531;SDS011;11432;46.924;7.114;2023-02-23T10:15:28;20.40;;;11.68;;
22531;SDS011;11432;46.924;7.114;2023-02-23T10:21:09;23.33;;;12.73;;
22531;SDS011;11432;46.924;7.114;2023-02-23T10:23:55;21.63;;;11.90;;
22531;SDS011;11432;46.924;7.114;2023-02-23T10:26:25;17.90;;;11.18;;
22531;SDS011;11432;46.924;7.114;2023-02-23T10:28:56;21.60;;;12.40;;
22531;SDS011;11432;46.924;7.114;2023-02-23T10:31:29;19.88;;;11.52;;
22531;SDS011;11432;46.924;7.114;2023-02-23T10:34:02;20.15;;;11.48;;
22531;SDS011;11432;46.924;7.114;2023-02-23T10:36:38;18.58;;;11.90;;
22531;SDS011;11432;46.924;7.114;2023-02-23T10:39:10;19.30;;;11.48;;
22531;SDS011;11432;46.924;7.114;2023-02-23T10:41:37;19.98;;;12.57;;
22531;SDS011;11432;46.924;7.114;2023-02-23T10:44:04;19.38;;;11.38;;
22531;SDS011;11432;46.924;7.114;2023-02-23T10:46:36;18.10;;;10.50;;
22531;SDS011;11432;46.924;7.114;2023-02-23T10:49:03;21.57;;;12.17;;
22531;SDS011;11432;46.924;7.114;2023-02-23T10:51:32;22.00;;;11.85;;
22531;SDS011;11432;46.924;7.114;2023-02-23T10:57:18;22.25;;;12.60;;
22531;SDS011;11432;46.924;7.114;2023-02-23T11:02:29;18.70;;;10.43;;
22531;SDS011;11432;46.924;7.114;2023-02-23T11:04:55;22.10;;;11.85;;
22531;SDS011;11432;46.924;7.114;2023-02-23T11:07:23;20.35;;;11.77;;
22531;SDS011;11432;46.924;7.114;2023-02-23T11:09:55;23.40;;;13.10;;
22531;SDS011;11432;46.924;7.114;2023-02-23T11:17:55;21.02;;;12.63;;
22531;SDS011;11432;46.924;7.114;2023-02-23T11:23:09;16.92;;;10.30;;
22531;SDS011;11432;46.924;7.114;2023-02-23T11:25:35;17.52;;;10.60;;
22531;SDS011;11432;46.924;7.114;2023-02-23T11:28:02;20.13;;;10.10;;
22531;SDS011;11432;46.924;7.114;2023-02-23T11:30:37;19.77;;;10.45;;
22531;SDS011;11432;46.924;7.114;2023-02-23T11:33:06;18.42;;;10.85;;
22531;SDS011;11432;46.924;7.114;2023-02-23T11:35:38;14.50;;;9.55;;
22531;SDS011;11432;46.924;7.114;2023-02-23T11:41:09;18.77;;;9.45;;
22531;SDS011;11432;46.924;7.114;2023-02-23T11:43:49;18.27;;;9.93;;
22531;SDS011;11432;46.924;7.114;2023-02-23T11:46:20;18.58;;;9.73;;
22531;SDS011;11432;46.924;7.114;2023-02-23T11:51:20;19.27;;;10.27;;
22531;SDS011;11432;46.924;7.114;2023-02-23T11:53:57;18.55;;;11.10;;
22531;SDS011;11432;46.924;7.114;2023-02-23T11:56:24;19.38;;;10.88;;
22531;SDS011;11432;46.924;7.114;2023-02-23T11:58:56;16.50;;;11.40;;
22531;SDS011;11432;46.924;7.114;2023-02-23T12:04:39;19.50;;;11.07;;
22531;SDS011;11432;46.924;7.114;2023-02-23T12:10:13;16.75;;;10.35;;
22531;SDS011;11432;46.924;7.114;2023-02-23T12:15:49;18.90;;;10.43;;
22531;SDS011;11432;46.924;7.114;2023-02-23T12:24:24;18.92;;;9.52;;
22531;SDS011;11432;46.924;7.114;2023-02-23T12:29:34;15.73;;;8.73;;
22531;SDS011;11432;46.924;7.114;2023-02-23T12:32:13;15.68;;;8.60;;
22531;SDS011;11432;46.924;7.114;2023-02-23T12:34:59;15.15;;;9.25;;
22531;SDS011;11432;46.924;7.114;2023-02-23T12:37:42;15.38;;;8.77;;
22531;SDS011;11432;46.924;7.114;2023-02-23T12:49:00;16.30;;;8.85;;
22531;SDS011;11432;46.924;7.114;2023-02-23T12:51:29;17.67;;;8.05;;
22531;SDS011;11432;46.924;7.114;2023-02-23T12:54:15;13.88;;;8.95;;
22531;SDS011;11432;46.924;7.114;2023-02-23T13:23:42;8.93;;;5.95;;
22531;SDS011;11432;46.924;7.114;2023-02-23T13:31:48;10.40;;;6.03;;
22531;SDS011;11432;46.924;7.114;2023-02-23T13:34:24;11.57;;;6.63;;
22531;SDS011;11432;46.924;7.114;2023-02-23T13:36:52;16.42;;;7.18;;
22531;SDS011;11432;46.924;7.114;2023-02-23T13:52:47;10.30;;;6.00;;
22531;SDS011;11432;46.924;7.114;2023-02-23T13:58:04;10.23;;;6.25;;
22531;SDS011;11432;46.924;7.114;2023-02-23T14:00:35;14.70;;;5.50;;
22531;SDS011;11432;46.924;7.114;2023-02-23T14:03:04;11.30;;;5.90;;
22531;SDS011;11432;46.924;7.114;2023-02-23T14:05:36;13.05;;;6.00;;
22531;SDS011;11432;46.924;7.114;2023-02-23T14:08:07;10.15;;;5.05;;
22531;SDS011;11432;46.924;7.114;2023-02-23T14:10:44;11.48;;;5.20;;
22531;SDS011;11432;46.924;7.114;2023-02-23T14:15:48;9.65;;;5.45;;
22531;SDS011;11432;46.924;7.114;2023-02-23T14:18:32;11.75;;;6.32;;
22531;SDS011;11432;46.924;7.114;2023-02-23T14:31:51;14.15;;;6.07;;
22531;SDS011;11432;46.924;7.114;2023-02-23T14:37:17;9.85;;;5.72;;
22531;SDS011;11432;46.924;7.114;2023-02-23T14:42:50;12.30;;;4.95;;
22531;SDS011;11432;46.924;7.114;2023-02-23T14:45:18;7.97;;;3.83;;
22531;SDS011;11432;46.924;7.114;2023-02-23T14:47:49;12.20;;;3.33;;
22531;SDS011;11432;46.924;7.114;2023-02-23T14:50:26;8.70;;;3.92;;
22531;SDS011;11432;46.924;7.114;2023-02-23T14:52:56;6.90;;;3.65;;
22531;SDS011;11432;46.924;7.114;2023-02-23T14:55:29;7.50;;;3.50;;
22531;SDS011;11432;46.924;7.114;2023-02-23T14:57:57;8.75;;;3.38;;
22531;SDS011;11432;46.924;7.114;2023-02-23T15:00:24;9.93;;;3.10;;
22531;SDS011;11432;46.924;7.114;2023-02-23T15:05:32;13.57;;;4.87;;
22531;SDS011;11432;46.924;7.114;2023-02-23T15:08:02;10.43;;;4.75;;
22531;SDS011;11432;46.924;7.114;2023-02-23T15:10:31;9.15;;;5.05;;
22531;SDS011;11432;46.924;7.114;2023-02-23T15:12:59;6.82;;;4.60;;
22531;SDS011;11432;46.924;7.114;2023-02-23T15:15:31;12.73;;;5.15;;
22531;SDS011;11432;46.924;7.114;2023-02-23T15:17:57;10.60;;;4.68;;
22531;SDS011;11432;46.924;7.114;2023-02-23T15:20:27;8.20;;;3.80;;
22531;SDS011;11432;46.924;7.114;2023-02-23T15:22:57;8.60;;;3.80;;
22531;SDS011;11432;46.924;7.114;2023-02-23T15:25:32;11.70;;;3.65;;
22531;SDS011;11432;46.924;7.114;2023-02-23T15:28:08;10.15;;;3.95;;
22531;SDS011;11432;46.924;7.114;2023-02-23T15:30:43;8.57;;;3.80;;
22531;SDS011;11432;46.924;7.114;2023-02-23T15:33:11;8.38;;;4.32;;
22531;SDS011;11432;46.924;7.114;2023-02-23T15:35:48;9.07;;;4.53;;
22531;SDS011;11432;46.924;7.114;2023-02-23T15:38:27;11.90;;;4.80;;
22531;SDS011;11432;46.924;7.114;2023-02-23T15:40:58;9.40;;;4.57;;
22531;SDS011;11432;46.924;7.114;2023-02-23T15:43:30;10.10;;;4.78;;
22531;SDS011;11432;46.924;7.114;2023-02-23T15:45:58;7.43;;;4.45;;
22531;SDS011;11432;46.924;7.114;2023-02-23T15:48:37;11.32;;;4.68;;
22531;SDS011;11432;46.924;7.114;2023-02-23T15:51:13;11.70;;;5.55;;
22531;SDS011;11432;46.924;7.114;2023-02-23T15:53:46;14.32;;;6.60;;
22531;SDS011;11432;46.924;7.114;2023-02-23T15:56:14;12.88;;;6.13;;
22531;SDS011;11432;46.924;7.114;2023-02-23T15:58:47;12.88;;;6.40;;
22531;SDS011;11432;46.924;7.114;2023-02-23T16:01:24;10.88;;;6.60;;
22531;SDS011;11432;46.924;7.114;2023-02-23T16:07:07;10.68;;;6.13;;
22531;SDS011;11432;46.924;7.114;2023-02-23T16:09:45;12.45;;;6.15;;
22531;SDS011;11432;46.924;7.114;2023-02-23T16:12:32;12.38;;;5.55;;
22531;SDS011;11432;46.924;7.114;2023-02-23T16:15:02;15.02;;;6.15;;
22531;SDS011;11432;46.924;7.114;2023-02-23T16:22:47;12.48;;;6.20;;
22531;SDS011;11432;46.924;7.114;2023-02-23T16:25:17;10.18;;;5.55;;
22531;SDS011;11432;46.924;7.114;2023-02-23T16:27:44;14.63;;;6.13;;
22531;SDS011;11432;46.924;7.114;2023-02-23T16:30:20;11.88;;;6.70;;
22531;SDS011;11432;46.924;7.114;2023-02-23T16:32:48;12.05;;;6.30;;
22531;SDS011;11432;46.924;7.114;2023-02-23T16:36:03;9.75;;;5.38;;
22531;SDS011;11432;46.924;7.114;2023-02-23T16:38:39;9.93;;;5.97;;
22531;SDS011;11432;46.924;7.114;2023-02-23T16:41:22;11.45;;;6.25;;
22531;SDS011;11432;46.924;7.114;2023-02-23T16:43:50;12.93;;;5.88;;
22531;SDS011;11432;46.924;7.114;2023-02-23T16:46:18;15.60;;;5.80;;
22531;SDS011;11432;46.924;7.114;2023-02-23T16:48:46;12.93;;;5.63;;
22531;SDS011;11432;46.924;7.114;2023-02-23T16:51:13;11.88;;;5.68;;
22531;SDS011;11432;46.924;7.114;2023-02-23T16:53:40;12.63;;;5.20;;
22531;SDS011;11432;46.924;7.114;2023-02-23T16:56:06;14.52;;;5.70;;
22531;SDS011;11432;46.924;7.114;2023-02-23T16:58:36;11.32;;;5.68;;
22531;SDS011;11432;46.924;7.114;2023-02-23T17:01:03;12.95;;;5.63;;
22531;SDS011;11432;46.924;7.114;2023-02-23T17:03:29;9.82;;;5.47;;
22531;SDS011;11432;46.924;7.114;2023-02-23T17:05:55;14.98;;;5.97;;
22531;SDS011;11432;46.924;7.114;2023-02-23T17:08:21;8.23;;;5.03;;
22531;SDS011;11432;46.924;7.114;2023-02-23T17:10:48;11.23;;;5.32;;
22531;SDS011;11432;46.924;7.114;2023-02-23T17:15:44;15.65;;;5.72;;
22531;SDS011;11432;46.924;7.114;2023-02-23T17:18:19;10.65;;;5.70;;
22531;SDS011;11432;46.924;7.114;2023-02-23T17:20:47;11.77;;;5.30;;
22531;SDS011;11432;46.924;7.114;2023-02-23T17:23:16;10.35;;;5.07;;
22531;SDS011;11432;46.924;7.114;2023-02-23T17:25:44;11.57;;;5.15;;
22531;SDS011;11432;46.924;7.114;2023-02-23T17:28:10;11.70;;;5.55;;
22531;SDS011;11432;46.924;7.114;2023-02-23T17:30:36;13.80;;;5.32;;
22531;SDS011;11432;46.924;7.114;2023-02-23T17:33:04;10.15;;;5.40;;
22531;SDS011;11432;46.924;7.114;2023-02-23T17:35:30;10.82;;;5.22;;
22531;SDS011;11432;46.924;7.114;2023-02-23T17:38:01;10.45;;;5.50;;
22531;SDS011;11432;46.924;7.114;2023-02-23T17:40:31;10.00;;;5.55;;
22531;SDS011;11432;46.924;7.114;2023-02-23T17:42:59;12.73;;;5.75;;
22531;SDS011;11432;46.924;7.114;2023-02-23T17:45:26;13.73;;;5.95;;
22531;SDS011;11432;46.924;7.114;2023-02-23T17:47:52;12.65;;;5.80;;
22531;SDS011;11432;46.924;7.114;2023-02-23T17:50:19;11.55;;;6.00;;
22531;SDS011;11432;46.924;7.114;2023-02-23T17:52:46;15.07;;;5.78;;
22531;SDS011;11432;46.924;7.114;2023-02-23T17:55:15;16.58;;;7.72;;